sensor_id;sensor_type;location;lat;lon;timestamp;temperature;humidity
71627;DHT22;59475;52.464;13.590;2023-06-22T00:00:51;18.65;89.62
71627;DHT22;59475;52.464;13.590;2023-06-22T00:03:18;18.62;89.97
71627;DHT22;59475;52.464;13.590;2023-06-22T00:05:43;18.58;90.34
71627;DHT22;59475;52.464;13.590;2023-06-22T00:08:08;18.52;90.37
71627;DHT22;59475;52.464;13.590;2023-06-22T00:10:34;18.51;90.29
71627;DHT22;59475;52.464;13.590;2023-06-22T00:13:00;18.47;90.32
71627;DHT22;59475;52.464;13.590;2023-06-22T00:15:25;18.45;90.34
71627;DHT22;59475;52.464;13.590;2023-06-22T00:17:51;18.41;90.57
71627;DHT22;59475;52.464;13.590;2023-06-22T00:20:16;18.40;90.75
71627;DHT22;59475;52.464;13.590;2023-06-22T00:22:43;18.34;91.02
71627;DHT22;59475;52.464;13.590;2023-06-22T00:25:09;18.31;91.32
71627;DHT22;59475;52.464;13.590;2023-06-22T00:27:36;18.27;91.13
71627;DHT22;59475;52.464;13.590;2023-06-22T00:30:02;18.29;90.92
71627;DHT22;59475;52.464;13.590;2023-06-22T00:32:27;18.30;90.85
71627;DHT22;59475;52.464;13.590;2023-06-22T00:34:53;18.29;90.81
71627;DHT22;59475;52.464;13.590;2023-06-22T00:37:18;18.29;90.72
71627;DHT22;59475;52.464;13.590;2023-06-22T00:39:43;18.24;90.67
71627;DHT22;59475;52.464;13.590;2023-06-22T00:42:09;18.24;90.73
71627;DHT22;59475;52.464;13.590;2023-06-22T00:44:35;18.24;90.88
71627;DHT22;59475;52.464;13.590;2023-06-22T00:47:01;18.22;91.57
71627;DHT22;59475;52.464;13.590;2023-06-22T00:49:26;18.20;91.81
71627;DHT22;59475;52.464;13.590;2023-06-22T00:51:52;18.17;91.86
71627;DHT22;59475;52.464;13.590;2023-06-22T00:54:17;18.12;91.86
71627;DHT22;59475;52.464;13.590;2023-06-22T00:56:53;18.06;91.99
71627;DHT22;59475;52.464;13.590;2023-06-22T00:59:20;18.04;91.99
71627;DHT22;59475;52.464;13.590;2023-06-22T01:01:45;18.03;92.10
71627;DHT22;59475;52.464;13.590;2023-06-22T01:04:11;18.02;91.84
71627;DHT22;59475;52.464;13.590;2023-06-22T01:06:42;18.02;91.61
71627;DHT22;59475;52.464;13.590;2023-06-22T01:09:20;17.99;91.62
71627;DHT22;59475;52.464;13.590;2023-06-22T01:11:52;17.99;91.59
71627;DHT22;59475;52.464;13.590;2023-06-22T01:14:32;18.02;91.53
71627;DHT22;59475;52.464;13.590;2023-06-22T01:17:01;18.04;91.68
71627;DHT22;59475;52.464;13.590;2023-06-22T01:19:38;18.07;91.77
71627;DHT22;59475;52.464;13.590;2023-06-22T01:22:06;18.13;91.39
71627;DHT22;59475;52.464;13.590;2023-06-22T01:28:15;18.12;91.42
71627;DHT22;59475;52.464;13.590;2023-06-22T01:30:16;18.12;91.36
71627;DHT22;59475;52.464;13.590;2023-06-22T01:32:42;18.14;91.58
71627;DHT22;59475;52.464;13.590;2023-06-22T01:35:09;18.10;91.54
71627;DHT22;59475;52.464;13.590;2023-06-22T01:37:36;18.10;91.42
71627;DHT22;59475;52.464;13.590;2023-06-22T01:40:02;18.06;91.51
71627;DHT22;59475;52.464;13.590;2023-06-22T01:42:31;18.02;91.68
71627;DHT22;59475;52.464;13.590;2023-06-22T01:44:57;18.00;91.90
71627;DHT22;59475;52.464;13.590;2023-06-22T01:47:24;18.00;91.99
71627;DHT22;59475;52.464;13.590;2023-06-22T01:49:50;18.02;92.01
71627;DHT22;59475;52.464;13.590;2023-06-22T01:52:19;17.97;91.78
71627;DHT22;59475;52.464;13.590;2023-06-22T01:54:46;18.02;91.76
71627;DHT22;59475;52.464;13.590;2023-06-22T01:57:11;18.00;91.75
71627;DHT22;59475;52.464;13.590;2023-06-22T02:02:47;17.99;91.71
71627;DHT22;59475;52.464;13.590;2023-06-22T02:05:16;18.04;92.12
71627;DHT22;59475;52.464;13.590;2023-06-22T02:07:47;18.07;92.06
71627;DHT22;59475;52.464;13.590;2023-06-22T02:10:15;18.04;92.22
71627;DHT22;59475;52.464;13.590;2023-06-22T02:12:44;18.06;92.29
71627;DHT22;59475;52.464;13.590;2023-06-22T02:15:11;18.06;92.31
71627;DHT22;59475;52.464;13.590;2023-06-22T02:17:38;18.07;92.19
71627;DHT22;59475;52.464;13.590;2023-06-22T02:20:03;18.06;92.17
71627;DHT22;59475;52.464;13.590;2023-06-22T02:22:34;18.09;92.19
71627;DHT22;59475;52.464;13.590;2023-06-22T02:24:59;18.07;92.13
71627;DHT22;59475;52.464;13.590;2023-06-22T02:27:25;18.09;92.00
71627;DHT22;59475;52.464;13.590;2023-06-22T02:29:50;18.09;92.17
71627;DHT22;59475;52.464;13.590;2023-06-22T02:32:15;18.12;92.20
71627;DHT22;59475;52.464;13.590;2023-06-22T02:34:43;18.07;92.16
71627;DHT22;59475;52.464;13.590;2023-06-22T02:37:13;18.03;92.25
71627;DHT22;59475;52.464;13.590;2023-06-22T02:39:40;18.06;92.22
71627;DHT22;59475;52.464;13.590;2023-06-22T02:42:05;18.09;92.13
71627;DHT22;59475;52.464;13.590;2023-06-22T02:44:31;18.10;92.17
71627;DHT22;59475;52.464;13.590;2023-06-22T02:46:56;18.10;92.16
71627;DHT22;59475;52.464;13.590;2023-06-22T02:49:22;18.14;92.16
71627;DHT22;59475;52.464;13.590;2023-06-22T02:51:48;18.16;92.21
71627;DHT22;59475;52.464;13.590;2023-06-22T02:54:16;18.18;91.99
71627;DHT22;59475;52.464;13.590;2023-06-22T02:56:42;18.24;91.64
71627;DHT22;59475;52.464;13.590;2023-06-22T02:59:11;18.23;91.75
71627;DHT22;59475;52.464;13.590;2023-06-22T03:01:37;18.22;91.73
71627;DHT22;59475;52.464;13.590;2023-06-22T03:04:09;18.24;91.50
71627;DHT22;59475;52.464;13.590;2023-06-22T03:06:35;18.27;91.61
71627;DHT22;59475;52.464;13.590;2023-06-22T03:09:04;18.31;91.58
71627;DHT22;59475;52.464;13.590;2023-06-22T03:11:30;18.30;91.86
71627;DHT22;59475;52.464;13.590;2023-06-22T03:13:56;18.34;91.77
71627;DHT22;59475;52.464;13.590;2023-06-22T03:16:21;18.33;91.67
71627;DHT22;59475;52.464;13.590;2023-06-22T03:18:47;18.38;91.44
71627;DHT22;59475;52.464;13.590;2023-06-22T03:21:12;18.37;91.61
71627;DHT22;59475;52.464;13.590;2023-06-22T03:23:38;18.38;91.71
71627;DHT22;59475;52.464;13.590;2023-06-22T03:26:03;18.41;91.77
71627;DHT22;59475;52.464;13.590;2023-06-22T03:28:29;18.40;91.73
71627;DHT22;59475;52.464;13.590;2023-06-22T03:30:57;18.38;91.78
71627;DHT22;59475;52.464;13.590;2023-06-22T03:33:23;18.37;91.81
71627;DHT22;59475;52.464;13.590;2023-06-22T03:35:48;18.37;91.93
71627;DHT22;59475;52.464;13.590;2023-06-22T03:38:15;18.38;91.95
71627;DHT22;59475;52.464;13.590;2023-06-22T03:40:41;18.34;92.14
71627;DHT22;59475;52.464;13.590;2023-06-22T03:43:06;18.36;92.07
71627;DHT22;59475;52.464;13.590;2023-06-22T03:45:31;18.40;92.08
71627;DHT22;59475;52.464;13.590;2023-06-22T03:47:57;18.38;92.16
71627;DHT22;59475;52.464;13.590;2023-06-22T03:50:22;18.43;92.18
71627;DHT22;59475;52.464;13.590;2023-06-22T03:52:48;18.43;91.87
71627;DHT22;59475;52.464;13.590;2023-06-22T03:55:13;18.47;92.02
71627;DHT22;59475;52.464;13.590;2023-06-22T03:57:39;18.48;92.08
71627;DHT22;59475;52.464;13.590;2023-06-22T04:00:05;18.51;92.19
71627;DHT22;59475;52.464;13.590;2023-06-22T04:02:31;18.57;92.26
71627;DHT22;59475;52.464;13.590;2023-06-22T04:04:56;18.61;92.10
71627;DHT22;59475;52.464;13.590;2023-06-22T04:07:22;18.64;91.95
71627;DHT22;59475;52.464;13.590;2023-06-22T04:09:47;18.67;91.75
71627;DHT22;59475;52.464;13.590;2023-06-22T04:12:13;18.72;91.42
71627;DHT22;59475;52.464;13.590;2023-06-22T04:14:38;18.73;91.59
71627;DHT22;59475;52.464;13.590;2023-06-22T04:17:04;18.78;91.40
71627;DHT22;59475;52.464;13.590;2023-06-22T04:19:29;18.85;91.24
71627;DHT22;59475;52.464;13.590;2023-06-22T04:21:55;18.88;91.47
71627;DHT22;59475;52.464;13.590;2023-06-22T04:24:20;18.94;91.18
71627;DHT22;59475;52.464;13.590;2023-06-22T04:26:46;18.98;91.26
71627;DHT22;59475;52.464;13.590;2023-06-22T04:29:12;19.03;91.04
71627;DHT22;59475;52.464;13.590;2023-06-22T04:31:37;19.10;90.27
71627;DHT22;59475;52.464;13.590;2023-06-22T04:34:04;19.13;90.52
71627;DHT22;59475;52.464;13.590;2023-06-22T04:36:37;19.19;90.21
71627;DHT22;59475;52.464;13.590;2023-06-22T04:39:07;19.30;89.96
71627;DHT22;59475;52.464;13.590;2023-06-22T04:41:35;19.36;90.10
71627;DHT22;59475;52.464;13.590;2023-06-22T04:44:08;19.47;89.23
71627;DHT22;59475;52.464;13.590;2023-06-22T04:46:33;19.58;88.98
71627;DHT22;59475;52.464;13.590;2023-06-22T04:49:09;19.68;88.84
71627;DHT22;59475;52.464;13.590;2023-06-22T04:51:42;19.82;87.17
71627;DHT22;59475;52.464;13.590;2023-06-22T04:54:08;19.92;87.65
71627;DHT22;59475;52.464;13.590;2023-06-22T04:56:34;20.04;88.19
71627;DHT22;59475;52.464;13.590;2023-06-22T04:59:00;20.15;87.35
71627;DHT22;59475;52.464;13.590;2023-06-22T05:01:26;20.32;85.35
71627;DHT22;59475;52.464;13.590;2023-06-22T05:03:52;20.41;85.76
71627;DHT22;59475;52.464;13.590;2023-06-22T05:06:23;20.48;84.45
71627;DHT22;59475;52.464;13.590;2023-06-22T05:08:53;20.60;83.48
71627;DHT22;59475;52.464;13.590;2023-06-22T05:11:25;20.77;82.88
71627;DHT22;59475;52.464;13.590;2023-06-22T05:13:50;20.87;82.99
71627;DHT22;59475;52.464;13.590;2023-06-22T05:16:16;21.02;81.57
71627;DHT22;59475;52.464;13.590;2023-06-22T05:18:41;21.16;81.55
71627;DHT22;59475;52.464;13.590;2023-06-22T05:21:07;21.33;80.79
71627;DHT22;59475;52.464;13.590;2023-06-22T05:23:32;21.38;79.12
71627;DHT22;59475;52.464;13.590;2023-06-22T05:25:57;21.45;79.72
71627;DHT22;59475;52.464;13.590;2023-06-22T05:28:23;21.56;80.56
71627;DHT22;59475;52.464;13.590;2023-06-22T05:30:48;21.64;78.81
71627;DHT22;59475;52.464;13.590;2023-06-22T05:33:14;21.74;78.67
71627;DHT22;59475;52.464;13.590;2023-06-22T05:35:40;21.90;77.35
71627;DHT22;59475;52.464;13.590;2023-06-22T05:38:06;22.05;77.02
71627;DHT22;59475;52.464;13.590;2023-06-22T05:40:32;22.16;75.93
71627;DHT22;59475;52.464;13.590;2023-06-22T05:42:57;22.36;76.65
71627;DHT22;59475;52.464;13.590;2023-06-22T05:45:23;22.60;76.48
71627;DHT22;59475;52.464;13.590;2023-06-22T05:47:48;22.80;74.08
71627;DHT22;59475;52.464;13.590;2023-06-22T05:50:13;22.97;73.45
71627;DHT22;59475;52.464;13.590;2023-06-22T05:52:39;22.94;72.37
71627;DHT22;59475;52.464;13.590;2023-06-22T05:55:05;23.11;71.60
71627;DHT22;59475;52.464;13.590;2023-06-22T05:57:30;23.32;71.96
71627;DHT22;59475;52.464;13.590;2023-06-22T05:59:55;23.56;69.97
71627;DHT22;59475;52.464;13.590;2023-06-22T06:02:21;23.79;69.68
71627;DHT22;59475;52.464;13.590;2023-06-22T06:04:46;23.94;68.89
71627;DHT22;59475;52.464;13.590;2023-06-22T06:07:12;23.92;68.84
71627;DHT22;59475;52.464;13.590;2023-06-22T06:09:37;23.92;69.21
71627;DHT22;59475;52.464;13.590;2023-06-22T06:12:03;23.92;68.45
71627;DHT22;59475;52.464;13.590;2023-06-22T06:14:29;24.06;68.00
71627;DHT22;59475;52.464;13.590;2023-06-22T06:16:54;24.16;67.38
71627;DHT22;59475;52.464;13.590;2023-06-22T06:19:19;24.34;67.10
71627;DHT22;59475;52.464;13.590;2023-06-22T06:21:45;24.48;66.89
71627;DHT22;59475;52.464;13.590;2023-06-22T06:24:11;24.55;64.97
71627;DHT22;59475;52.464;13.590;2023-06-22T06:26:37;24.75;65.39
71627;DHT22;59475;52.464;13.590;2023-06-22T06:29:02;24.99;64.07
71627;DHT22;59475;52.464;13.590;2023-06-22T06:31:28;25.14;62.93
71627;DHT22;59475;52.464;13.590;2023-06-22T06:33:56;25.26;63.76
71627;DHT22;59475;52.464;13.590;2023-06-22T06:36:22;25.42;62.65
71627;DHT22;59475;52.464;13.590;2023-06-22T06:38:48;25.75;61.59
71627;DHT22;59475;52.464;13.590;2023-06-22T06:41:15;26.09;60.83
71627;DHT22;59475;52.464;13.590;2023-06-22T06:43:40;26.33;57.42
71627;DHT22;59475;52.464;13.590;2023-06-22T06:46:07;26.40;57.24
71627;DHT22;59475;52.464;13.590;2023-06-22T06:48:33;26.50;57.76
71627;DHT22;59475;52.464;13.590;2023-06-22T06:50:58;26.60;57.39
71627;DHT22;59475;52.464;13.590;2023-06-22T06:53:24;26.82;58.12
71627;DHT22;59475;52.464;13.590;2023-06-22T06:55:49;27.19;55.66
71627;DHT22;59475;52.464;13.590;2023-06-22T06:58:14;27.37;54.69
71627;DHT22;59475;52.464;13.590;2023-06-22T07:00:41;27.03;55.24
71627;DHT22;59475;52.464;13.590;2023-06-22T07:03:09;27.47;55.25
71627;DHT22;59475;52.464;13.590;2023-06-22T07:05:35;27.65;54.49
71627;DHT22;59475;52.464;13.590;2023-06-22T07:08:01;28.02;53.34
71627;DHT22;59475;52.464;13.590;2023-06-22T07:10:26;28.25;50.93
71627;DHT22;59475;52.464;13.590;2023-06-22T07:12:52;28.53;51.05
71627;DHT22;59475;52.464;13.590;2023-06-22T07:15:17;28.31;49.97
71627;DHT22;59475;52.464;13.590;2023-06-22T07:17:42;28.06;51.10
71627;DHT22;59475;52.464;13.590;2023-06-22T07:20:09;27.95;51.20
71627;DHT22;59475;52.464;13.590;2023-06-22T07:22:39;28.25;52.14
71627;DHT22;59475;52.464;13.590;2023-06-22T07:25:05;28.50;50.05
71627;DHT22;59475;52.464;13.590;2023-06-22T07:27:38;28.87;48.57
71627;DHT22;59475;52.464;13.590;2023-06-22T07:30:05;28.97;47.99
71627;DHT22;59475;52.464;13.590;2023-06-22T07:32:31;29.16;48.29
71627;DHT22;59475;52.464;13.590;2023-06-22T07:34:56;29.28;47.66
71627;DHT22;59475;52.464;13.590;2023-06-22T07:37:22;29.16;46.01
71627;DHT22;59475;52.464;13.590;2023-06-22T07:39:52;29.01;46.61
71627;DHT22;59475;52.464;13.590;2023-06-22T07:42:19;28.77;47.52
71627;DHT22;59475;52.464;13.590;2023-06-22T07:44:44;28.74;49.01
71627;DHT22;59475;52.464;13.590;2023-06-22T07:47:09;28.77;48.21
71627;DHT22;59475;52.464;13.590;2023-06-22T07:49:35;28.80;46.95
71627;DHT22;59475;52.464;13.590;2023-06-22T07:52:00;28.27;49.04
71627;DHT22;59475;52.464;13.590;2023-06-22T07:54:27;27.97;50.72
71627;DHT22;59475;52.464;13.590;2023-06-22T07:56:52;27.97;51.11
71627;DHT22;59475;52.464;13.590;2023-06-22T07:59:18;28.09;49.75
71627;DHT22;59475;52.464;13.590;2023-06-22T08:01:43;28.13;48.03
71627;DHT22;59475;52.464;13.590;2023-06-22T08:04:08;28.10;48.10
71627;DHT22;59475;52.464;13.590;2023-06-22T08:06:34;27.82;47.14
71627;DHT22;59475;52.464;13.590;2023-06-22T08:08:59;27.54;48.52
71627;DHT22;59475;52.464;13.590;2023-06-22T08:11:24;27.58;48.64
71627;DHT22;59475;52.464;13.590;2023-06-22T08:13:51;27.42;47.63
71627;DHT22;59475;52.464;13.590;2023-06-22T08:16:16;27.33;48.37
71627;DHT22;59475;52.464;13.590;2023-06-22T08:18:42;27.29;49.96
71627;DHT22;59475;52.464;13.590;2023-06-22T08:21:07;27.47;49.96
71627;DHT22;59475;52.464;13.590;2023-06-22T08:23:32;27.62;49.19
71627;DHT22;59475;52.464;13.590;2023-06-22T08:25:59;27.54;49.64
71627;DHT22;59475;52.464;13.590;2023-06-22T08:28:24;27.53;50.47
71627;DHT22;59475;52.464;13.590;2023-06-22T08:30:50;27.43;49.42
71627;DHT22;59475;52.464;13.590;2023-06-22T08:33:15;27.30;50.30
71627;DHT22;59475;52.464;13.590;2023-06-22T08:35:41;27.33;49.94
71627;DHT22;59475;52.464;13.590;2023-06-22T08:38:07;27.46;50.63
71627;DHT22;59475;52.464;13.590;2023-06-22T08:40:33;27.68;51.17
71627;DHT22;59475;52.464;13.590;2023-06-22T08:42:58;27.97;50.63
71627;DHT22;59475;52.464;13.590;2023-06-22T08:45:23;28.06;48.62
71627;DHT22;59475;52.464;13.590;2023-06-22T08:47:49;27.82;49.31
71627;DHT22;59475;52.464;13.590;2023-06-22T08:50:14;27.84;49.23
71627;DHT22;59475;52.464;13.590;2023-06-22T08:52:40;27.82;49.28
71627;DHT22;59475;52.464;13.590;2023-06-22T08:55:09;28.04;49.18
71627;DHT22;59475;52.464;13.590;2023-06-22T08:57:34;28.29;48.42
71627;DHT22;59475;52.464;13.590;2023-06-22T09:00:02;28.40;48.31
71627;DHT22;59475;52.464;13.590;2023-06-22T09:02:30;28.63;47.99
71627;DHT22;59475;52.464;13.590;2023-06-22T09:04:59;28.97;48.41
71627;DHT22;59475;52.464;13.590;2023-06-22T09:07:25;28.91;47.14
71627;DHT22;59475;52.464;13.590;2023-06-22T09:09:51;29.07;46.72
71627;DHT22;59475;52.464;13.590;2023-06-22T09:12:17;29.22;46.89
71627;DHT22;59475;52.464;13.590;2023-06-22T09:14:45;29.26;46.29
71627;DHT22;59475;52.464;13.590;2023-06-22T09:17:12;29.23;46.48
71627;DHT22;59475;52.464;13.590;2023-06-22T09:19:37;29.29;45.57
71627;DHT22;59475;52.464;13.590;2023-06-22T09:22:03;28.87;46.92
71627;DHT22;59475;52.464;13.590;2023-06-22T09:24:31;28.90;46.95
71627;DHT22;59475;52.464;13.590;2023-06-22T09:26:56;29.01;46.53
71627;DHT22;59475;52.464;13.590;2023-06-22T09:29:22;29.23;46.33
71627;DHT22;59475;52.464;13.590;2023-06-22T09:31:47;29.14;46.86
71627;DHT22;59475;52.464;13.590;2023-06-22T09:34:12;28.87;47.29
71627;DHT22;59475;52.464;13.590;2023-06-22T09:36:38;29.11;47.99
71627;DHT22;59475;52.464;13.590;2023-06-22T09:39:05;29.35;46.07
71627;DHT22;59475;52.464;13.590;2023-06-22T09:41:32;29.65;44.61
71627;DHT22;59475;52.464;13.590;2023-06-22T09:43:57;30.12;45.50
71627;DHT22;59475;52.464;13.590;2023-06-22T09:46:23;30.41;43.73
71627;DHT22;59475;52.464;13.590;2023-06-22T09:48:50;30.51;43.09
71627;DHT22;59475;52.464;13.590;2023-06-22T09:51:16;30.35;42.98
71627;DHT22;59475;52.464;13.590;2023-06-22T09:53:41;30.33;42.70
71627;DHT22;59475;52.464;13.590;2023-06-22T09:56:07;30.36;42.37
71627;DHT22;59475;52.464;13.590;2023-06-22T09:58:36;30.15;42.77
71627;DHT22;59475;52.464;13.590;2023-06-22T10:01:01;30.15;42.98
71627;DHT22;59475;52.464;13.590;2023-06-22T10:03:27;30.18;43.21
71627;DHT22;59475;52.464;13.590;2023-06-22T10:05:52;30.15;42.16
71627;DHT22;59475;52.464;13.590;2023-06-22T10:08:17;30.25;40.96
71627;DHT22;59475;52.464;13.590;2023-06-22T10:10:45;30.25;41.23
71627;DHT22;59475;52.464;13.590;2023-06-22T10:13:13;29.97;40.19
71627;DHT22;59475;52.464;13.590;2023-06-22T10:15:41;29.88;41.15
71627;DHT22;59475;52.464;13.590;2023-06-22T10:18:07;30.10;40.39
71627;DHT22;59475;52.464;13.590;2023-06-22T10:20:33;30.22;40.28
71627;DHT22;59475;52.464;13.590;2023-06-22T10:22:58;30.55;40.50
71627;DHT22;59475;52.464;13.590;2023-06-22T10:25:24;30.88;40.25
71627;DHT22;59475;52.464;13.590;2023-06-22T10:27:50;30.97;40.73
71627;DHT22;59475;52.464;13.590;2023-06-22T10:30:16;30.91;40.21
71627;DHT22;59475;52.464;13.590;2023-06-22T10:32:42;30.98;37.91
71627;DHT22;59475;52.464;13.590;2023-06-22T10:35:09;30.72;38.91
71627;DHT22;59475;52.464;13.590;2023-06-22T10:37:38;30.73;40.50
71627;DHT22;59475;52.464;13.590;2023-06-22T10:40:04;30.76;39.61
71627;DHT22;59475;52.464;13.590;2023-06-22T10:42:30;30.70;40.84
71627;DHT22;59475;52.464;13.590;2023-06-22T10:44:56;30.72;41.04
71627;DHT22;59475;52.464;13.590;2023-06-22T10:47:21;30.98;40.57
71627;DHT22;59475;52.464;13.590;2023-06-22T10:49:47;31.66;39.51
71627;DHT22;59475;52.464;13.590;2023-06-22T10:52:12;32.44;37.54
71627;DHT22;59475;52.464;13.590;2023-06-22T10:54:37;32.94;37.59
71627;DHT22;59475;52.464;13.590;2023-06-22T10:57:05;32.76;36.97
71627;DHT22;59475;52.464;13.590;2023-06-22T10:59:31;32.30;37.84
71627;DHT22;59475;52.464;13.590;2023-06-22T11:01:56;32.86;37.96
71627;DHT22;59475;52.464;13.590;2023-06-22T11:04:22;33.34;37.02
71627;DHT22;59475;52.464;13.590;2023-06-22T11:06:48;33.36;36.33
71627;DHT22;59475;52.464;13.590;2023-06-22T11:09:14;33.55;35.74
71627;DHT22;59475;52.464;13.590;2023-06-22T11:11:50;33.90;36.45
71627;DHT22;59475;52.464;13.590;2023-06-22T11:14:16;33.63;35.77
71627;DHT22;59475;52.464;13.590;2023-06-22T11:16:41;33.61;35.94
71627;DHT22;59475;52.464;13.590;2023-06-22T11:19:07;33.81;36.11
71627;DHT22;59475;52.464;13.590;2023-06-22T11:21:32;34.28;35.73
71627;DHT22;59475;52.464;13.590;2023-06-22T11:23:58;34.15;35.91
71627;DHT22;59475;52.464;13.590;2023-06-22T11:26:24;34.20;36.17
71627;DHT22;59475;52.464;13.590;2023-06-22T11:28:52;34.15;36.00
71627;DHT22;59475;52.464;13.590;2023-06-22T11:31:18;34.16;36.32
71627;DHT22;59475;52.464;13.590;2023-06-22T11:33:43;34.22;34.51
71627;DHT22;59475;52.464;13.590;2023-06-22T11:36:11;33.06;36.17
71627;DHT22;59475;52.464;13.590;2023-06-22T11:38:36;32.55;36.84
71627;DHT22;59475;52.464;13.590;2023-06-22T11:41:07;32.78;36.88
71627;DHT22;59475;52.464;13.590;2023-06-22T11:43:32;33.26;36.66
71627;DHT22;59475;52.464;13.590;2023-06-22T11:46:01;33.57;35.81
71627;DHT22;59475;52.464;13.590;2023-06-22T11:48:26;33.51;35.78
71627;DHT22;59475;52.464;13.590;2023-06-22T11:50:52;33.61;36.59
71627;DHT22;59475;52.464;13.590;2023-06-22T11:53:17;33.25;36.10
71627;DHT22;59475;52.464;13.590;2023-06-22T11:55:44;33.87;35.59
71627;DHT22;59475;52.464;13.590;2023-06-22T11:58:09;33.57;37.21
71627;DHT22;59475;52.464;13.590;2023-06-22T12:00:35;33.54;35.85
71627;DHT22;59475;52.464;13.590;2023-06-22T12:03:01;33.26;36.96
71627;DHT22;59475;52.464;13.590;2023-06-22T12:05:26;33.25;36.58
71627;DHT22;59475;52.464;13.590;2023-06-22T12:07:55;33.40;36.44
71627;DHT22;59475;52.464;13.590;2023-06-22T12:10:25;33.19;36.15
71627;DHT22;59475;52.464;13.590;2023-06-22T12:12:51;33.26;36.64
71627;DHT22;59475;52.464;13.590;2023-06-22T12:15:17;32.85;37.22
71627;DHT22;59475;52.464;13.590;2023-06-22T12:17:42;31.86;38.25
71627;DHT22;59475;52.464;13.590;2023-06-22T12:20:08;31.90;38.96
71627;DHT22;59475;52.464;13.590;2023-06-22T12:22:34;31.52;39.88
71627;DHT22;59475;52.464;13.590;2023-06-22T12:25:01;31.72;39.67
71627;DHT22;59475;52.464;13.590;2023-06-22T12:27:26;31.90;38.81
71627;DHT22;59475;52.464;13.590;2023-06-22T12:29:52;31.86;40.49
71627;DHT22;59475;52.464;13.590;2023-06-22T12:32:17;32.12;39.17
71627;DHT22;59475;52.464;13.590;2023-06-22T12:34:43;31.86;39.04
71627;DHT22;59475;52.464;13.590;2023-06-22T12:37:09;31.58;39.31
71627;DHT22;59475;52.464;13.590;2023-06-22T12:39:35;31.03;40.44
71627;DHT22;59475;52.464;13.590;2023-06-22T12:42:00;30.72;41.10
71627;DHT22;59475;52.464;13.590;2023-06-22T12:44:26;31.25;40.39
71627;DHT22;59475;52.464;13.590;2023-06-22T12:46:51;31.43;39.85
71627;DHT22;59475;52.464;13.590;2023-06-22T12:49:17;31.45;40.23
71627;DHT22;59475;52.464;13.590;2023-06-22T12:51:43;31.45;40.82
71627;DHT22;59475;52.464;13.590;2023-06-22T12:54:09;31.01;40.31
71627;DHT22;59475;52.464;13.590;2023-06-22T12:56:34;30.31;42.01
71627;DHT22;59475;52.464;13.590;2023-06-22T12:59:00;30.04;41.35
71627;DHT22;59475;52.464;13.590;2023-06-22T13:01:29;30.18;42.91
71627;DHT22;59475;52.464;13.590;2023-06-22T13:03:55;30.36;41.67
71627;DHT22;59475;52.464;13.590;2023-06-22T13:06:21;30.27;43.45
71627;DHT22;59475;52.464;13.590;2023-06-22T13:08:46;30.15;42.62
71627;DHT22;59475;52.464;13.590;2023-06-22T13:11:12;30.00;42.66
71627;DHT22;59475;52.464;13.590;2023-06-22T13:13:38;30.07;42.82
71627;DHT22;59475;52.464;13.590;2023-06-22T13:16:04;30.03;42.60
71627;DHT22;59475;52.464;13.590;2023-06-22T13:18:29;30.07;43.36
71627;DHT22;59475;52.464;13.590;2023-06-22T13:20:55;30.38;43.49
71627;DHT22;59475;52.464;13.590;2023-06-22T13:23:21;30.72;41.59
71627;DHT22;59475;52.464;13.590;2023-06-22T13:25:47;30.93;41.72
71627;DHT22;59475;52.464;13.590;2023-06-22T13:28:13;30.96;41.93
71627;DHT22;59475;52.464;13.590;2023-06-22T13:30:40;31.06;40.90
71627;DHT22;59475;52.464;13.590;2023-06-22T13:33:05;31.11;41.31
71627;DHT22;59475;52.464;13.590;2023-06-22T13:35:31;30.90;42.92
71627;DHT22;59475;52.464;13.590;2023-06-22T13:37:56;30.84;43.36
71627;DHT22;59475;52.464;13.590;2023-06-22T13:40:22;30.70;42.31
71627;DHT22;59475;52.464;13.590;2023-06-22T13:42:47;30.52;42.20
71627;DHT22;59475;52.464;13.590;2023-06-22T13:45:12;30.49;44.15
71627;DHT22;59475;52.464;13.590;2023-06-22T13:47:39;30.29;42.78
71627;DHT22;59475;52.464;13.590;2023-06-22T13:50:05;30.17;44.13
71627;DHT22;59475;52.464;13.590;2023-06-22T13:52:30;29.85;43.43
71627;DHT22;59475;52.464;13.590;2023-06-22T13:54:56;29.66;44.67
71627;DHT22;59475;52.464;13.590;2023-06-22T13:57:21;29.40;44.09
71627;DHT22;59475;52.464;13.590;2023-06-22T13:59:47;29.62;44.95
71627;DHT22;59475;52.464;13.590;2023-06-22T14:02:12;29.70;45.01
71627;DHT22;59475;52.464;13.590;2023-06-22T14:04:37;29.87;43.78
71627;DHT22;59475;52.464;13.590;2023-06-22T14:07:03;29.97;44.33
71627;DHT22;59475;52.464;13.590;2023-06-22T14:09:28;29.98;43.13
71627;DHT22;59475;52.464;13.590;2023-06-22T14:11:54;29.98;44.67
71627;DHT22;59475;52.464;13.590;2023-06-22T14:14:21;30.00;43.25
71627;DHT22;59475;52.464;13.590;2023-06-22T14:16:46;29.96;43.65
71627;DHT22;59475;52.464;13.590;2023-06-22T14:19:13;29.93;43.91
71627;DHT22;59475;52.464;13.590;2023-06-22T14:21:38;29.93;43.89
71627;DHT22;59475;52.464;13.590;2023-06-22T14:24:04;30.08;45.42
71627;DHT22;59475;52.464;13.590;2023-06-22T14:26:29;30.05;44.11
71627;DHT22;59475;52.464;13.590;2023-06-22T14:28:54;30.05;43.48
71627;DHT22;59475;52.464;13.590;2023-06-22T14:31:22;29.85;44.53
71627;DHT22;59475;52.464;13.590;2023-06-22T14:33:48;29.74;44.43
71627;DHT22;59475;52.464;13.590;2023-06-22T14:36:14;29.73;44.36
71627;DHT22;59475;52.464;13.590;2023-06-22T14:38:40;29.78;44.47
71627;DHT22;59475;52.464;13.590;2023-06-22T14:41:05;29.73;44.38
71627;DHT22;59475;52.464;13.590;2023-06-22T14:43:31;29.65;45.19
71627;DHT22;59475;52.464;13.590;2023-06-22T14:45:56;29.62;44.78
71627;DHT22;59475;52.464;13.590;2023-06-22T14:48:23;29.67;45.04
71627;DHT22;59475;52.464;13.590;2023-06-22T14:50:48;29.63;44.25
71627;DHT22;59475;52.464;13.590;2023-06-22T14:53:14;29.63;45.18
71627;DHT22;59475;52.464;13.590;2023-06-22T14:55:40;29.55;44.05
71627;DHT22;59475;52.464;13.590;2023-06-22T14:58:05;29.50;44.64
71627;DHT22;59475;52.464;13.590;2023-06-22T15:00:31;29.55;45.55
71627;DHT22;59475;52.464;13.590;2023-06-22T15:02:57;29.57;44.56
71627;DHT22;59475;52.464;13.590;2023-06-22T15:05:24;29.47;45.01
71627;DHT22;59475;52.464;13.590;2023-06-22T15:07:49;29.46;45.55
71627;DHT22;59475;52.464;13.590;2023-06-22T15:10:15;29.55;45.58
71627;DHT22;59475;52.464;13.590;2023-06-22T15:12:40;29.63;45.40
71627;DHT22;59475;52.464;13.590;2023-06-22T15:15:06;29.67;45.22